Terminal Aerodrome Forecast
Issued by NWS

Home | Current Version | Previous Version | Text Only | Print | Product List | Glossary On
Versions: 1 2 3 4 5 6 7 8 9 10 11 12 13 14 15 16 17 18 19 20 21 22 23 24 25 26 27 28 29 30
519
FTUS42 KMHX 041155 AAA
TAFOAJ
TAF AMD
KOAJ 041155Z 0412/0512 00000KT 6SM BR VCTS BKN025CB
     FM041400 24003KT P6SM BKN035
     FM041700 26007KT P6SM BKN045
     FM042300 00000KT P6SM FEW250
     FM050800 00000KT 3SM BR FEW250
      AMD LTD TO CLD VIS AND WIND=

USA.gov is the U.S. government's official web portal to all federal, state and local government web resources and services.